METAR Data
IDs: Format: Raw Decoded Include TAF

Data at: 1344 UTC 07 Jul 2020

KPVC 071256Z AUTO 18003KT 10SM OVC070 18/15 A3021 RMK AO2 SLP230 T01830150 PNO $
KPVC 071156Z AUTO 11006KT 10SM BKN080 18/15 A3021 RMK AO2 SLP227 6//// 7//// T01780150 10178 20144 50001 PNO $
KPVC 071125Z AUTO 19004KT 10SM SCT008 BKN080 OVC090 17/15 A3021 RMK AO2 PNO $
KPVC 071056Z AUTO 20005KT 10SM BKN008 OVC085 16/14 A3021 RMK AO2 SLP228 T01610144 PNO $
KPVC 071053Z AUTO 21006KT 10SM BKN008 OVC085 16/15 A3021 RMK AO2 PNO $
KPVC 070956Z AUTO 17003KT 10SM OVC010 16/15 A3020 RMK AO2 SLP226 T01610150 PNO $
KPVC 070856Z AUTO 19005KT 10SM OVC010 16/15 A3019 RMK AO2 SLP221 6//// T01560150 53005 PNO $
KPVC 070756Z AUTO 21004KT 10SM OVC010 16/15 A3018 RMK AO2 SLP218 T01560150 PNO $
KPVC 070656Z AUTO 19004KT 10SM OVC010 16/16 A3017 RMK AO2 SLP216 T01610156 PNO $
KPVC 070639Z AUTO 20003KT 10SM OVC010 14/14 A3017 RMK AO2 CIG 008V012 PNO $
KPVC 070556Z AUTO 17004KT 10SM BKN008 14/14 A3017 RMK AO2 SLP216 6//// T01440144 10178 20128 50004 PNO $
KPVC 070521Z AUTO 17004KT 10SM FEW008 SCT090 16/15 A3018 RMK AO2 PNO $
KPVC 070456Z AUTO 00000KT 10SM SCT090 14/14 A3018 RMK AO2 SLP220 T01440139 402110139 PNO $
KPVC 070356Z AUTO 17004KT 10SM FEW008 16/16 A3017 RMK AO2 SLP217 T01610156 PNO $
KPVC 070340Z AUTO 18004KT 10SM FEW008 16/16 A3018 RMK AO2 PNO $
KPVC 070256Z AUTO 20004KT 10SM CLR 14/14 A3016 RMK AO2 SLP212 6//// T01440139 51008 PNO $
KPVC 070156Z AUTO 13004KT 10SM CLR 16/15 A3015 RMK AO2 SLP210 T01560150 PNO $
KPVC 070056Z AUTO 09005KT 10SM CLR 16/15 A3015 RMK AO2 SLP207 T01610150 PNO $
KPVC 062356Z AUTO 08006KT 10SM CLR 18/16 A3014 RMK AO2 SLP204 6//// T01780161 10211 20178 50005 PNO $
KPVC 062256Z AUTO 07006KT 10SM CLR 19/16 A3014 RMK AO2 SLP205 T01940161 PNO $
KPVC 062156Z AUTO 08007KT 10SM CLR 20/16 A3013 RMK AO2 SLP203 T02000161 PNO $
KPVC 062056Z AUTO 05008KT 10SM SCT013 21/17 A3012 RMK AO2 SLP198 6//// T02060172 50000 PNO $
KPVC 061956Z AUTO 02006KT 10SM BKN013 21/18 A3012 RMK AO2 SLP199 T02060183 PNO $
KPVC 061926Z AUTO 02007KT 10SM BKN009 OVC017 21/18 A3012 RMK AO2 CIG 008V011 PNO $
KPVC 061856Z AUTO 02010KT 10SM OVC017 21/18 A3012 RMK AO2 SLP198 T02060183 PNO $
KPVC 061813Z AUTO 01007KT 10SM FEW009 OVC021 21/18 A3012 RMK AO2 PNO $
KPVC 061756Z AUTO 03009KT 10SM OVC019 21/18 A3012 RMK AO2 SLP198 6//// T02110183 10211 20172 51013 PNO $
KPVC 061728Z AUTO 03009KT 10SM SCT010 OVC017 21/18 A3011 RMK AO2 PNO $
KPVC 061656Z AUTO 01010KT 10SM OVC010 20/18 A3011 RMK AO2 CIG 008V012 SLP195 T02000183 PNO $
KPVC 061603Z AUTO 36007KT 10SM SCT007 BKN012 OVC021 21/19 A3010 RMK AO2 PNO $
KPVC 061556Z AUTO 36007KT 10SM SCT012 OVC021 21/18 A3010 RMK AO2 SLP193 T02060183 PNO $
KPVC 061514Z AUTO 01006KT 10SM BKN015 21/19 A3009 RMK AO2 PNO $
KPVC 061456Z AUTO 01005KT 10SM FEW013 21/19 A3008 RMK AO2 SLP186 6//// T02110194 53015 PNO $
KPVC 061425Z AUTO 01006KT 10SM SCT003 SCT012 20/19 A3006 RMK AO2 PNO $
KPVC 061402Z AUTO 02008KT 3SM BR OVC003 19/19 A3006 RMK AO2 PNO $
KPVC 061359Z AUTO 02006KT 1 1/4SM BR OVC003 19/19 A3006 RMK AO2 VIS 1/2V5 PNO $
KPVC 061356Z AUTO 02008KT 3/4SM BR OVC003 19/19 A3006 RMK AO2 SLP178 T01890189 PNO $
KPVC 061347Z AUTO 02007KT 3/4SM BR OVC003 19/19 A3006 RMK AO2 PNO $
KPVC 061333Z AUTO 03008KT 1/4SM FG OVC003 18/18 A3005 RMK AO2 PNO $
KPVC 061322Z AUTO 03008KT 3/4SM BR OVC003 18/18 A3005 RMK AO2 PNO $
KPVC 061318Z AUTO 03008KT 1 3/4SM BR OVC003 18/18 A3005 RMK AO2 VIS 3/4V5 PNO $
KPVC 061256Z AUTO 36009KT 9SM OVC003 18/18 A3006 RMK AO2 SLP177 T01830178 PNO $
KPVC 061220Z AUTO 36006KT 3SM BR OVC003 18/18 A3004 RMK AO2 PNO $
KPVC 061216Z AUTO 01007KT 1 1/4SM BR OVC003 18/18 A3004 RMK AO2 PNO $
KPVC 061212Z AUTO 02006KT 3/4SM BR OVC003 18/18 A3004 RMK AO2 PNO $
KPVC 061156Z AUTO 36009KT 1/4SM FG OVC003 17/17 A3004 RMK AO2 SLP170 6//// 7//// T01720172 10194 20172 51022 PNO $
KPVC 061056Z AUTO 01007KT 1/4SM FG OVC003 17/17 A3002 RMK AO2 SLP165 T01720172 PNO $
KPVC 061025Z AUTO 01005KT 1/4SM FG BKN003 BKN008 18/17 A3001 RMK AO2 PNO $
KPVC 061023Z AUTO 01007KT 1/2SM FG BKN005 BKN008 18/17 A3001 RMK AO2 CIG 002V007 PNO $
KPVC 061021Z AUTO 36007KT 1 1/2SM BR BKN005 BKN008 18/17 A3000 RMK AO2 CIG 002V006 PNO $
KPVC 061016Z AUTO 36005KT 10SM BKN007 18/18 A3000 RMK AO2 CIG 004V009 PNO $
KPVC 060956Z AUTO 34004KT 10SM OVC005 18/18 A3000 RMK AO2 SLP157 T01830178 PNO $
KPVC 060944Z AUTO 34007KT 10SM OVC005 18/18 A2999 RMK AO2 PNO $
KPVC 060921Z AUTO 34007KT 10SM BKN003 18/18 A2998 RMK AO2 PNO $
KPVC 060856Z AUTO 22004KT 9SM CLR 19/18 A2997 RMK AO2 SLP148 6//// T01890183 53004 PNO $
KPVC 060756Z AUTO 20008KT 10SM FEW025 19/19 A2996 RMK AO2 SLP145 T01940189 PNO $
KPVC 060656Z AUTO 17005KT 10SM CLR 19/18 A2996 RMK AO2 SLP144 T01890183 PNO $
KPVC 060556Z AUTO 15006KT 10SM CLR 18/17 A2996 RMK AO2 LTG DSNT S SLP144 6//// T01780172 10206 20172 50001 PNO $
KPVC 060456Z AUTO 08009KT 10SM SCT029 17/17 A2997 RMK AO2 LTG DSNT E-S TSE46RAB0358E42 SLP148 T01720167 402500172 PNO $
KPVC 060429Z AUTO 05007G18KT 6SM -TSRA BR SCT002 BKN011 OVC029 17/17 A3000 RMK AO2 LTG DSNT ALQDS RAB0358 PNO $
KPVC 060356Z AUTO 21011KT 2 1/2SM VCTS BR OVC002 20/20 A2996 RMK AO2 LTG DSNT W-NE TSB52 SLP144 T02000200 PNO $
KPVC 060346Z AUTO 20010KT 2 1/2SM BR OVC002 20/20 A2995 RMK AO2 VIS 2V3 LTG DSNT W-NE PNO $
KPVC 060320Z AUTO 20009KT 3SM BR OVC002 20/20 A2994 RMK AO2 LTG DSNT N AND NW PNO $
KPVC 060256Z AUTO 20008KT 2 1/2SM BR OVC002 20/19 A2996 RMK AO2 LTG DSNT N AND W SLP144 6//// T02000194 51000 PNO $
KPVC 060243Z AUTO 19009KT 2 1/2SM BR OVC002 20/19 A2996 RMK AO2 PNO $
KPVC 060156Z AUTO 20011G17KT 10SM OVC004 20/19 A2996 RMK AO2 SLP143 T02000194 PNO $
KPVC 060146Z AUTO 20011KT 9SM OVC004 20/19 A2996 RMK AO2 PNO $